sensor_id;sensor_type;location;lat;lon;timestamp;temperature;humidity
33093;DHT22;19456;46.104;12.908;2023-03-14T00:01:52;10.50;99.90
33093;DHT22;19456;46.104;12.908;2023-03-14T00:04:18;10.50;99.90
33093;DHT22;19456;46.104;12.908;2023-03-14T00:06:43;10.50;99.90
33093;DHT22;19456;46.104;12.908;2023-03-14T00:09:09;10.50;99.90
33093;DHT22;19456;46.104;12.908;2023-03-14T00:11:34;10.50;99.90
33093;DHT22;19456;46.104;12.908;2023-03-14T00:14:00;10.60;99.90
33093;DHT22;19456;46.104;12.908;2023-03-14T00:16:26;10.70;99.90
33093;DHT22;19456;46.104;12.908;2023-03-14T00:18:51;10.80;99.90
33093;DHT22;19456;46.104;12.908;2023-03-14T00:21:17;10.90;99.90
33093;DHT22;19456;46.104;12.908;2023-03-14T00:23:43;10.80;99.90
33093;DHT22;19456;46.104;12.908;2023-03-14T00:26:12;10.80;99.90
33093;DHT22;19456;46.104;12.908;2023-03-14T00:28:40;10.70;99.90
33093;DHT22;19456;46.104;12.908;2023-03-14T00:31:06;10.70;99.90
33093;DHT22;19456;46.104;12.908;2023-03-14T00:33:32;10.50;99.90
33093;DHT22;19456;46.104;12.908;2023-03-14T00:35:59;10.50;99.90
33093;DHT22;19456;46.104;12.908;2023-03-14T00:38:26;10.50;99.90
33093;DHT22;19456;46.104;12.908;2023-03-14T00:40:51;10.50;99.90
33093;DHT22;19456;46.104;12.908;2023-03-14T00:43:18;10.50;99.90
33093;DHT22;19456;46.104;12.908;2023-03-14T00:45:43;10.50;99.90
33093;DHT22;19456;46.104;12.908;2023-03-14T00:48:09;10.50;99.90
33093;DHT22;19456;46.104;12.908;2023-03-14T00:50:35;10.40;99.90
33093;DHT22;19456;46.104;12.908;2023-03-14T00:53:00;10.40;99.90
33093;DHT22;19456;46.104;12.908;2023-03-14T00:55:26;10.40;99.90
33093;DHT22;19456;46.104;12.908;2023-03-14T00:57:51;10.30;99.90
33093;DHT22;19456;46.104;12.908;2023-03-14T01:00:17;10.20;99.90
33093;DHT22;19456;46.104;12.908;2023-03-14T01:02:43;10.40;99.90
33093;DHT22;19456;46.104;12.908;2023-03-14T01:05:09;10.40;99.90
33093;DHT22;19456;46.104;12.908;2023-03-14T01:07:35;10.40;99.90
33093;DHT22;19456;46.104;12.908;2023-03-14T01:10:01;10.30;99.90
33093;DHT22;19456;46.104;12.908;2023-03-14T01:12:27;10.40;99.90
33093;DHT22;19456;46.104;12.908;2023-03-14T01:14:52;10.40;99.90
33093;DHT22;19456;46.104;12.908;2023-03-14T01:17:18;10.40;99.90
33093;DHT22;19456;46.104;12.908;2023-03-14T01:19:43;10.40;99.90
33093;DHT22;19456;46.104;12.908;2023-03-14T01:22:09;10.30;99.90
33093;DHT22;19456;46.104;12.908;2023-03-14T01:24:36;10.20;99.90
33093;DHT22;19456;46.104;12.908;2023-03-14T01:27:01;10.20;99.90
33093;DHT22;19456;46.104;12.908;2023-03-14T01:29:27;10.30;99.90
33093;DHT22;19456;46.104;12.908;2023-03-14T01:31:53;10.30;99.90
33093;DHT22;19456;46.104;12.908;2023-03-14T01:34:18;10.30;99.90
33093;DHT22;19456;46.104;12.908;2023-03-14T01:36:44;10.30;99.90
33093;DHT22;19456;46.104;12.908;2023-03-14T01:39:09;10.40;99.90
33093;DHT22;19456;46.104;12.908;2023-03-14T01:41:35;10.40;99.90
33093;DHT22;19456;46.104;12.908;2023-03-14T01:44:00;10.40;99.90
33093;DHT22;19456;46.104;12.908;2023-03-14T01:46:28;10.40;99.90
33093;DHT22;19456;46.104;12.908;2023-03-14T01:48:59;10.30;99.90
33093;DHT22;19456;46.104;12.908;2023-03-14T01:51:28;10.50;99.90
33093;DHT22;19456;46.104;12.908;2023-03-14T01:53:56;10.40;99.90
33093;DHT22;19456;46.104;12.908;2023-03-14T01:56:24;10.40;99.90
33093;DHT22;19456;46.104;12.908;2023-03-14T01:58:50;10.40;99.90
33093;DHT22;19456;46.104;12.908;2023-03-14T02:01:18;10.30;99.90
33093;DHT22;19456;46.104;12.908;2023-03-14T02:03:50;10.30;99.90
33093;DHT22;19456;46.104;12.908;2023-03-14T02:06:17;10.30;99.90
33093;DHT22;19456;46.104;12.908;2023-03-14T02:08:44;10.30;99.90
33093;DHT22;19456;46.104;12.908;2023-03-14T02:11:13;10.30;99.90
33093;DHT22;19456;46.104;12.908;2023-03-14T02:13:39;10.40;99.90
33093;DHT22;19456;46.104;12.908;2023-03-14T02:16:05;10.20;99.90
33093;DHT22;19456;46.104;12.908;2023-03-14T02:18:30;10.20;99.90
33093;DHT22;19456;46.104;12.908;2023-03-14T02:23:36;10.30;99.90
33093;DHT22;19456;46.104;12.908;2023-03-14T02:26:06;10.30;99.90
33093;DHT22;19456;46.104;12.908;2023-03-14T02:28:33;10.30;99.90
33093;DHT22;19456;46.104;12.908;2023-03-14T02:30:58;10.40;99.90
33093;DHT22;19456;46.104;12.908;2023-03-14T02:33:24;10.40;99.90
33093;DHT22;19456;46.104;12.908;2023-03-14T02:35:51;10.50;99.90
33093;DHT22;19456;46.104;12.908;2023-03-14T02:38:27;10.40;99.90
33093;DHT22;19456;46.104;12.908;2023-03-14T02:40:54;10.20;99.90
33093;DHT22;19456;46.104;12.908;2023-03-14T02:43:20;10.40;99.90
33093;DHT22;19456;46.104;12.908;2023-03-14T02:45:49;10.50;99.90
33093;DHT22;19456;46.104;12.908;2023-03-14T02:48:19;10.40;99.90
33093;DHT22;19456;46.104;12.908;2023-03-14T02:50:46;10.40;99.90
33093;DHT22;19456;46.104;12.908;2023-03-14T02:53:14;10.40;99.90
33093;DHT22;19456;46.104;12.908;2023-03-14T02:55:44;10.50;99.90
33093;DHT22;19456;46.104;12.908;2023-03-14T02:58:09;10.50;99.90
33093;DHT22;19456;46.104;12.908;2023-03-14T03:00:35;10.50;99.90
33093;DHT22;19456;46.104;12.908;2023-03-14T03:03:01;10.50;99.90
33093;DHT22;19456;46.104;12.908;2023-03-14T03:05:26;10.50;99.90
33093;DHT22;19456;46.104;12.908;2023-03-14T03:07:52;10.50;99.90
33093;DHT22;19456;46.104;12.908;2023-03-14T03:10:17;10.50;99.90
33093;DHT22;19456;46.104;12.908;2023-03-14T03:12:43;10.60;99.90
33093;DHT22;19456;46.104;12.908;2023-03-14T03:15:09;10.60;99.90
33093;DHT22;19456;46.104;12.908;2023-03-14T03:17:35;10.50;99.90
33093;DHT22;19456;46.104;12.908;2023-03-14T03:20:00;10.40;99.90
33093;DHT22;19456;46.104;12.908;2023-03-14T03:22:26;10.40;99.90
33093;DHT22;19456;46.104;12.908;2023-03-14T03:24:51;10.40;99.90
33093;DHT22;19456;46.104;12.908;2023-03-14T03:27:17;10.30;99.90
33093;DHT22;19456;46.104;12.908;2023-03-14T03:29:42;10.20;99.90
33093;DHT22;19456;46.104;12.908;2023-03-14T03:32:08;10.30;99.90
33093;DHT22;19456;46.104;12.908;2023-03-14T03:34:34;10.40;99.90
33093;DHT22;19456;46.104;12.908;2023-03-14T03:37:00;10.40;99.90
33093;DHT22;19456;46.104;12.908;2023-03-14T03:39:25;10.50;99.90
33093;DHT22;19456;46.104;12.908;2023-03-14T03:41:51;10.50;99.90
33093;DHT22;19456;46.104;12.908;2023-03-14T03:44:16;10.50;99.90
33093;DHT22;19456;46.104;12.908;2023-03-14T03:46:42;10.60;99.90
33093;DHT22;19456;46.104;12.908;2023-03-14T03:49:07;10.50;99.90
33093;DHT22;19456;46.104;12.908;2023-03-14T03:51:33;10.40;99.90
33093;DHT22;19456;46.104;12.908;2023-03-14T03:53:59;10.50;99.90
33093;DHT22;19456;46.104;12.908;2023-03-14T03:56:24;10.60;99.90
33093;DHT22;19456;46.104;12.908;2023-03-14T03:58:50;10.60;99.90
33093;DHT22;19456;46.104;12.908;2023-03-14T04:01:15;10.60;99.90
33093;DHT22;19456;46.104;12.908;2023-03-14T04:03:41;10.50;99.90
33093;DHT22;19456;46.104;12.908;2023-03-14T04:06:10;10.40;99.90
33093;DHT22;19456;46.104;12.908;2023-03-14T04:08:36;10.20;99.90
33093;DHT22;19456;46.104;12.908;2023-03-14T04:11:02;10.10;99.90
33093;DHT22;19456;46.104;12.908;2023-03-14T04:13:28;10.10;99.90
33093;DHT22;19456;46.104;12.908;2023-03-14T04:15:54;10.20;99.90
33093;DHT22;19456;46.104;12.908;2023-03-14T04:18:20;10.20;99.90
33093;DHT22;19456;46.104;12.908;2023-03-14T04:20:50;10.30;99.90
33093;DHT22;19456;46.104;12.908;2023-03-14T04:23:15;10.30;99.90
33093;DHT22;19456;46.104;12.908;2023-03-14T04:25:41;10.40;99.90
33093;DHT22;19456;46.104;12.908;2023-03-14T04:28:07;10.40;99.90
33093;DHT22;19456;46.104;12.908;2023-03-14T04:30:32;10.40;99.90
33093;DHT22;19456;46.104;12.908;2023-03-14T04:32:58;10.30;99.90
33093;DHT22;19456;46.104;12.908;2023-03-14T04:35:23;10.20;99.90
33093;DHT22;19456;46.104;12.908;2023-03-14T04:37:49;10.20;99.90
33093;DHT22;19456;46.104;12.908;2023-03-14T04:40:15;10.20;99.90
33093;DHT22;19456;46.104;12.908;2023-03-14T04:42:41;10.30;99.90
33093;DHT22;19456;46.104;12.908;2023-03-14T04:45:06;10.30;99.90
33093;DHT22;19456;46.104;12.908;2023-03-14T04:47:32;10.40;99.90
33093;DHT22;19456;46.104;12.908;2023-03-14T04:49:58;10.50;99.90
33093;DHT22;19456;46.104;12.908;2023-03-14T04:52:23;10.50;99.90
33093;DHT22;19456;46.104;12.908;2023-03-14T04:54:49;10.40;99.90
33093;DHT22;19456;46.104;12.908;2023-03-14T04:57:15;10.50;99.90
33093;DHT22;19456;46.104;12.908;2023-03-14T04:59:40;10.40;99.90
33093;DHT22;19456;46.104;12.908;2023-03-14T05:02:06;10.20;99.90
33093;DHT22;19456;46.104;12.908;2023-03-14T05:04:31;10.20;99.90
33093;DHT22;19456;46.104;12.908;2023-03-14T05:06:59;10.20;99.90
33093;DHT22;19456;46.104;12.908;2023-03-14T05:09:24;10.10;99.90
33093;DHT22;19456;46.104;12.908;2023-03-14T05:11:50;10.00;99.90
33093;DHT22;19456;46.104;12.908;2023-03-14T05:14:16;10.00;99.90
33093;DHT22;19456;46.104;12.908;2023-03-14T05:16:41;10.00;99.90
33093;DHT22;19456;46.104;12.908;2023-03-14T05:19:07;9.90;99.90
33093;DHT22;19456;46.104;12.908;2023-03-14T05:21:32;9.90;99.90
33093;DHT22;19456;46.104;12.908;2023-03-14T05:23:58;10.00;99.90
33093;DHT22;19456;46.104;12.908;2023-03-14T05:26:23;10.10;99.90
33093;DHT22;19456;46.104;12.908;2023-03-14T05:28:49;10.20;99.90
33093;DHT22;19456;46.104;12.908;2023-03-14T05:31:14;10.30;99.90
33093;DHT22;19456;46.104;12.908;2023-03-14T05:33:40;10.20;99.90
33093;DHT22;19456;46.104;12.908;2023-03-14T05:36:05;10.10;99.90
33093;DHT22;19456;46.104;12.908;2023-03-14T05:38:31;10.00;99.90
33093;DHT22;19456;46.104;12.908;2023-03-14T05:40:57;10.00;99.90
33093;DHT22;19456;46.104;12.908;2023-03-14T05:43:22;10.00;99.90
33093;DHT22;19456;46.104;12.908;2023-03-14T05:45:48;10.10;99.90
33093;DHT22;19456;46.104;12.908;2023-03-14T05:48:13;10.10;99.90
33093;DHT22;19456;46.104;12.908;2023-03-14T05:50:39;10.20;99.90
33093;DHT22;19456;46.104;12.908;2023-03-14T05:53:05;10.20;99.90
33093;DHT22;19456;46.104;12.908;2023-03-14T05:55:30;10.30;99.90
33093;DHT22;19456;46.104;12.908;2023-03-14T05:57:56;10.30;99.90
33093;DHT22;19456;46.104;12.908;2023-03-14T06:00:21;10.30;99.90
33093;DHT22;19456;46.104;12.908;2023-03-14T06:02:47;10.30;99.90
33093;DHT22;19456;46.104;12.908;2023-03-14T06:05:13;10.30;99.90
33093;DHT22;19456;46.104;12.908;2023-03-14T06:07:38;10.40;99.90
33093;DHT22;19456;46.104;12.908;2023-03-14T06:10:04;10.40;99.90
33093;DHT22;19456;46.104;12.908;2023-03-14T06:12:30;10.40;99.90
33093;DHT22;19456;46.104;12.908;2023-03-14T06:14:55;10.40;99.90
33093;DHT22;19456;46.104;12.908;2023-03-14T06:17:21;10.50;99.90
33093;DHT22;19456;46.104;12.908;2023-03-14T06:19:47;10.50;99.90
33093;DHT22;19456;46.104;12.908;2023-03-14T06:22:12;10.50;99.90
33093;DHT22;19456;46.104;12.908;2023-03-14T06:24:38;10.50;99.90
33093;DHT22;19456;46.104;12.908;2023-03-14T06:27:04;10.60;99.90
33093;DHT22;19456;46.104;12.908;2023-03-14T06:29:29;10.50;99.90
33093;DHT22;19456;46.104;12.908;2023-03-14T06:31:55;10.60;99.90
33093;DHT22;19456;46.104;12.908;2023-03-14T06:34:20;10.70;99.90
33093;DHT22;19456;46.104;12.908;2023-03-14T06:36:46;10.90;99.90
33093;DHT22;19456;46.104;12.908;2023-03-14T06:39:12;10.80;99.90
33093;DHT22;19456;46.104;12.908;2023-03-14T06:41:37;10.90;99.90
33093;DHT22;19456;46.104;12.908;2023-03-14T06:44:03;10.90;99.90
33093;DHT22;19456;46.104;12.908;2023-03-14T06:46:28;11.00;99.90
33093;DHT22;19456;46.104;12.908;2023-03-14T06:48:54;11.10;99.90
33093;DHT22;19456;46.104;12.908;2023-03-14T06:51:20;11.20;99.90
33093;DHT22;19456;46.104;12.908;2023-03-14T06:53:45;11.10;99.90
33093;DHT22;19456;46.104;12.908;2023-03-14T06:56:11;11.10;99.90
33093;DHT22;19456;46.104;12.908;2023-03-14T06:58:37;11.10;99.90
33093;DHT22;19456;46.104;12.908;2023-03-14T07:01:02;11.10;99.90
33093;DHT22;19456;46.104;12.908;2023-03-14T07:03:28;11.00;99.90
33093;DHT22;19456;46.104;12.908;2023-03-14T07:05:54;11.20;99.90
33093;DHT22;19456;46.104;12.908;2023-03-14T07:08:20;11.10;99.90
33093;DHT22;19456;46.104;12.908;2023-03-14T07:16:42;11.00;99.90
33093;DHT22;19456;46.104;12.908;2023-03-14T07:19:24;11.20;99.90
33093;DHT22;19456;46.104;12.908;2023-03-14T07:25:33;11.30;99.90
33093;DHT22;19456;46.104;12.908;2023-03-14T07:31:20;11.30;99.90
33093;DHT22;19456;46.104;12.908;2023-03-14T07:33:49;11.40;99.90
33093;DHT22;19456;46.104;12.908;2023-03-14T07:36:16;11.50;99.90
33093;DHT22;19456;46.104;12.908;2023-03-14T07:38:44;11.50;99.90
33093;DHT22;19456;46.104;12.908;2023-03-14T07:41:10;11.40;99.90
33093;DHT22;19456;46.104;12.908;2023-03-14T07:43:38;11.40;99.90
33093;DHT22;19456;46.104;12.908;2023-03-14T07:46:04;11.50;99.90
33093;DHT22;19456;46.104;12.908;2023-03-14T07:48:30;11.50;99.90
33093;DHT22;19456;46.104;12.908;2023-03-14T07:51:04;11.50;99.90
33093;DHT22;19456;46.104;12.908;2023-03-14T07:53:33;11.40;99.90
33093;DHT22;19456;46.104;12.908;2023-03-14T07:55:59;11.40;99.90
33093;DHT22;19456;46.104;12.908;2023-03-14T08:01:34;11.40;99.90
33093;DHT22;19456;46.104;12.908;2023-03-14T08:04:00;11.40;99.90
33093;DHT22;19456;46.104;12.908;2023-03-14T08:06:26;11.50;99.90
33093;DHT22;19456;46.104;12.908;2023-03-14T08:08:51;11.40;99.90
33093;DHT22;19456;46.104;12.908;2023-03-14T08:11:17;11.40;99.90
33093;DHT22;19456;46.104;12.908;2023-03-14T08:13:43;11.30;99.90
33093;DHT22;19456;46.104;12.908;2023-03-14T08:16:17;11.30;99.90
33093;DHT22;19456;46.104;12.908;2023-03-14T08:18:43;11.30;99.90
33093;DHT22;19456;46.104;12.908;2023-03-14T08:21:09;11.30;99.90
33093;DHT22;19456;46.104;12.908;2023-03-14T08:23:35;11.20;99.90
33093;DHT22;19456;46.104;12.908;2023-03-14T08:26:00;11.20;99.90
33093;DHT22;19456;46.104;12.908;2023-03-14T08:28:26;11.30;99.90
33093;DHT22;19456;46.104;12.908;2023-03-14T08:30:59;11.40;99.90
33093;DHT22;19456;46.104;12.908;2023-03-14T08:33:25;11.40;99.90
33093;DHT22;19456;46.104;12.908;2023-03-14T08:35:54;11.40;99.90
33093;DHT22;19456;46.104;12.908;2023-03-14T08:38:20;11.40;99.90
33093;DHT22;19456;46.104;12.908;2023-03-14T08:40:45;11.40;99.90
33093;DHT22;19456;46.104;12.908;2023-03-14T08:43:11;11.50;99.90
33093;DHT22;19456;46.104;12.908;2023-03-14T08:45:37;11.50;99.90
33093;DHT22;19456;46.104;12.908;2023-03-14T08:48:02;11.50;99.90
33093;DHT22;19456;46.104;12.908;2023-03-14T08:50:28;11.60;99.90
33093;DHT22;19456;46.104;12.908;2023-03-14T08:52:54;11.50;99.90
33093;DHT22;19456;46.104;12.908;2023-03-14T08:55:19;11.50;99.90
33093;DHT22;19456;46.104;12.908;2023-03-14T08:57:45;11.60;99.90
33093;DHT22;19456;46.104;12.908;2023-03-14T09:00:11;11.60;99.90
33093;DHT22;19456;46.104;12.908;2023-03-14T09:02:39;11.50;99.90
33093;DHT22;19456;46.104;12.908;2023-03-14T09:05:05;11.40;99.90
33093;DHT22;19456;46.104;12.908;2023-03-14T09:07:31;11.50;99.90
33093;DHT22;19456;46.104;12.908;2023-03-14T09:09:56;11.50;99.90
33093;DHT22;19456;46.104;12.908;2023-03-14T09:12:22;11.50;99.90
33093;DHT22;19456;46.104;12.908;2023-03-14T09:14:47;11.50;99.90
33093;DHT22;19456;46.104;12.908;2023-03-14T09:17:13;11.50;99.90
33093;DHT22;19456;46.104;12.908;2023-03-14T09:19:39;11.50;99.90
33093;DHT22;19456;46.104;12.908;2023-03-14T09:22:04;11.50;99.90
33093;DHT22;19456;46.104;12.908;2023-03-14T09:24:30;11.60;99.90
33093;DHT22;19456;46.104;12.908;2023-03-14T09:26:56;11.70;99.90
33093;DHT22;19456;46.104;12.908;2023-03-14T09:29:22;11.70;99.90
33093;DHT22;19456;46.104;12.908;2023-03-14T09:31:47;11.60;99.90
33093;DHT22;19456;46.104;12.908;2023-03-14T09:34:13;11.60;99.90
33093;DHT22;19456;46.104;12.908;2023-03-14T09:36:39;11.60;99.90
33093;DHT22;19456;46.104;12.908;2023-03-14T09:39:04;11.60;99.90
33093;DHT22;19456;46.104;12.908;2023-03-14T09:41:34;11.70;99.90
33093;DHT22;19456;46.104;12.908;2023-03-14T09:44:11;11.80;99.90
33093;DHT22;19456;46.104;12.908;2023-03-14T09:46:38;11.80;99.90
33093;DHT22;19456;46.104;12.908;2023-03-14T09:49:09;12.00;99.90
33093;DHT22;19456;46.104;12.908;2023-03-14T09:51:36;12.10;99.90
33093;DHT22;19456;46.104;12.908;2023-03-14T09:54:01;12.20;99.90
33093;DHT22;19456;46.104;12.908;2023-03-14T09:56:28;12.50;99.90
33093;DHT22;19456;46.104;12.908;2023-03-14T09:58:59;12.70;99.90
33093;DHT22;19456;46.104;12.908;2023-03-14T10:01:27;12.80;99.90
33093;DHT22;19456;46.104;12.908;2023-03-14T10:03:57;12.80;99.90
33093;DHT22;19456;46.104;12.908;2023-03-14T10:06:24;12.70;99.90
33093;DHT22;19456;46.104;12.908;2023-03-14T10:08:51;12.70;99.90
33093;DHT22;19456;46.104;12.908;2023-03-14T10:11:18;12.60;99.90
33093;DHT22;19456;46.104;12.908;2023-03-14T10:14:02;12.60;99.90
33093;DHT22;19456;46.104;12.908;2023-03-14T10:16:32;12.70;99.90
33093;DHT22;19456;46.104;12.908;2023-03-14T10:19:01;12.70;99.90
33093;DHT22;19456;46.104;12.908;2023-03-14T10:21:30;12.60;99.90
33093;DHT22;19456;46.104;12.908;2023-03-14T10:26:40;12.60;99.90
33093;DHT22;19456;46.104;12.908;2023-03-14T10:29:10;12.60;99.90
33093;DHT22;19456;46.104;12.908;2023-03-14T10:31:59;12.60;99.90
33093;DHT22;19456;46.104;12.908;2023-03-14T10:34:27;12.70;99.90
33093;DHT22;19456;46.104;12.908;2023-03-14T10:36:57;12.70;99.90
33093;DHT22;19456;46.104;12.908;2023-03-14T10:39:25;12.80;99.90
33093;DHT22;19456;46.104;12.908;2023-03-14T10:41:55;12.90;99.90
33093;DHT22;19456;46.104;12.908;2023-03-14T10:44:26;12.90;99.90
33093;DHT22;19456;46.104;12.908;2023-03-14T10:46:56;12.70;99.90
33093;DHT22;19456;46.104;12.908;2023-03-14T10:49:28;12.70;99.90
33093;DHT22;19456;46.104;12.908;2023-03-14T10:51:54;12.60;99.90
33093;DHT22;19456;46.104;12.908;2023-03-14T10:54:21;12.70;99.90
33093;DHT22;19456;46.104;12.908;2023-03-14T10:56:55;12.80;99.90
33093;DHT22;19456;46.104;12.908;2023-03-14T10:59:21;12.80;99.90
33093;DHT22;19456;46.104;12.908;2023-03-14T11:06:44;12.70;99.90
33093;DHT22;19456;46.104;12.908;2023-03-14T11:12:18;12.80;99.90
33093;DHT22;19456;46.104;12.908;2023-03-14T11:14:51;12.70;99.90
33093;DHT22;19456;46.104;12.908;2023-03-14T11:17:20;12.70;99.90
33093;DHT22;19456;46.104;12.908;2023-03-14T11:22:42;12.70;99.90
33093;DHT22;19456;46.104;12.908;2023-03-14T11:27:43;12.80;99.90
33093;DHT22;19456;46.104;12.908;2023-03-14T11:30:16;12.70;99.90
33093;DHT22;19456;46.104;12.908;2023-03-14T11:32:46;12.60;99.90
33093;DHT22;19456;46.104;12.908;2023-03-14T11:35:22;12.60;99.90
33093;DHT22;19456;46.104;12.908;2023-03-14T11:37:53;12.70;99.90
33093;DHT22;19456;46.104;12.908;2023-03-14T11:40:20;12.60;99.90
33093;DHT22;19456;46.104;12.908;2023-03-14T11:42:48;12.70;99.90
33093;DHT22;19456;46.104;12.908;2023-03-14T11:45:17;12.80;99.90
33093;DHT22;19456;46.104;12.908;2023-03-14T11:47:43;12.90;99.90
33093;DHT22;19456;46.104;12.908;2023-03-14T11:50:24;12.90;99.90
33093;DHT22;19456;46.104;12.908;2023-03-14T11:52:58;13.00;99.90
33093;DHT22;19456;46.104;12.908;2023-03-14T11:57:57;13.10;99.90
33093;DHT22;19456;46.104;12.908;2023-03-14T12:00:23;13.20;99.90
33093;DHT22;19456;46.104;12.908;2023-03-14T12:10:15;13.20;99.90
33093;DHT22;19456;46.104;12.908;2023-03-14T12:12:41;13.20;99.90
33093;DHT22;19456;46.104;12.908;2023-03-14T12:15:15;13.00;99.90
33093;DHT22;19456;46.104;12.908;2023-03-14T12:17:43;13.00;99.90
33093;DHT22;19456;46.104;12.908;2023-03-14T12:20:16;13.00;99.90
33093;DHT22;19456;46.104;12.908;2023-03-14T12:23:24;13.00;99.90
33093;DHT22;19456;46.104;12.908;2023-03-14T12:25:32;12.80;99.90
33093;DHT22;19456;46.104;12.908;2023-03-14T12:30:39;12.60;99.90
33093;DHT22;19456;46.104;12.908;2023-03-14T12:35:47;12.50;99.90
33093;DHT22;19456;46.104;12.908;2023-03-14T12:40:52;12.50;99.90
33093;DHT22;19456;46.104;12.908;2023-03-14T12:43:26;12.50;99.90
33093;DHT22;19456;46.104;12.908;2023-03-14T12:48:37;12.40;99.90
33093;DHT22;19456;46.104;12.908;2023-03-14T12:51:04;12.20;99.90
33093;DHT22;19456;46.104;12.908;2023-03-14T12:56:21;12.40;99.90
33093;DHT22;19456;46.104;12.908;2023-03-14T12:58:53;12.30;99.90
33093;DHT22;19456;46.104;12.908;2023-03-14T13:01:19;12.20;99.90
33093;DHT22;19456;46.104;12.908;2023-03-14T13:03:46;12.10;99.90
33093;DHT22;19456;46.104;12.908;2023-03-14T13:06:13;12.20;99.90
33093;DHT22;19456;46.104;12.908;2023-03-14T13:08:58;12.30;99.90
33093;DHT22;19456;46.104;12.908;2023-03-14T13:11:44;12.30;99.90
33093;DHT22;19456;46.104;12.908;2023-03-14T13:14:09;12.40;99.90
33093;DHT22;19456;46.104;12.908;2023-03-14T13:16:35;12.40;99.90
33093;DHT22;19456;46.104;12.908;2023-03-14T13:19:02;12.40;99.90
33093;DHT22;19456;46.104;12.908;2023-03-14T13:21:29;12.40;99.90
33093;DHT22;19456;46.104;12.908;2023-03-14T13:24:06;12.50;99.90
33093;DHT22;19456;46.104;12.908;2023-03-14T13:26:38;12.60;99.90
33093;DHT22;19456;46.104;12.908;2023-03-14T13:29:17;12.60;99.90
33093;DHT22;19456;46.104;12.908;2023-03-14T13:31:48;12.60;99.90
33093;DHT22;19456;46.104;12.908;2023-03-14T13:34:13;12.50;99.90
33093;DHT22;19456;46.104;12.908;2023-03-14T13:36:39;12.50;99.90
33093;DHT22;19456;46.104;12.908;2023-03-14T13:39:09;12.40;99.90
33093;DHT22;19456;46.104;12.908;2023-03-14T13:41:38;12.50;99.90
33093;DHT22;19456;46.104;12.908;2023-03-14T13:44:05;12.50;99.90
33093;DHT22;19456;46.104;12.908;2023-03-14T13:46:33;12.50;99.90
33093;DHT22;19456;46.104;12.908;2023-03-14T13:49:00;12.50;99.90
33093;DHT22;19456;46.104;12.908;2023-03-14T13:51:27;12.60;99.90
33093;DHT22;19456;46.104;12.908;2023-03-14T13:53:58;12.60;99.90
33093;DHT22;19456;46.104;12.908;2023-03-14T13:56:30;12.70;99.90
33093;DHT22;19456;46.104;12.908;2023-03-14T13:58:56;12.70;99.90
33093;DHT22;19456;46.104;12.908;2023-03-14T14:01:27;12.80;99.90
33093;DHT22;19456;46.104;12.908;2023-03-14T14:03:56;12.90;99.90
33093;DHT22;19456;46.104;12.908;2023-03-14T14:06:26;12.80;99.90
33093;DHT22;19456;46.104;12.908;2023-03-14T14:08:53;13.00;99.90
33093;DHT22;19456;46.104;12.908;2023-03-14T14:11:34;13.30;99.90
33093;DHT22;19456;46.104;12.908;2023-03-14T14:14:02;13.40;99.90
33093;DHT22;19456;46.104;12.908;2023-03-14T14:16:28;13.30;99.90
33093;DHT22;19456;46.104;12.908;2023-03-14T14:18:54;13.20;99.90
33093;DHT22;19456;46.104;12.908;2023-03-14T14:21:20;13.20;99.90
33093;DHT22;19456;46.104;12.908;2023-03-14T14:23:46;13.10;99.90
33093;DHT22;19456;46.104;12.908;2023-03-14T14:26:14;13.20;99.90
33093;DHT22;19456;46.104;12.908;2023-03-14T14:28:41;13.40;99.90
33093;DHT22;19456;46.104;12.908;2023-03-14T14:33:45;13.30;99.90
33093;DHT22;19456;46.104;12.908;2023-03-14T14:36:16;13.30;99.90
33093;DHT22;19456;46.104;12.908;2023-03-14T14:38:48;13.30;99.90
33093;DHT22;19456;46.104;12.908;2023-03-14T14:41:14;13.20;99.90
33093;DHT22;19456;46.104;12.908;2023-03-14T14:43:39;13.20;99.90
33093;DHT22;19456;46.104;12.908;2023-03-14T14:46:06;13.10;99.90
33093;DHT22;19456;46.104;12.908;2023-03-14T14:48:35;13.00;99.90
33093;DHT22;19456;46.104;12.908;2023-03-14T14:51:02;12.90;99.90
33093;DHT22;19456;46.104;12.908;2023-03-14T14:55:56;12.80;99.90
33093;DHT22;19456;46.104;12.908;2023-03-14T14:58:28;12.70;99.90
33093;DHT22;19456;46.104;12.908;2023-03-14T15:01:05;12.70;99.90
33093;DHT22;19456;46.104;12.908;2023-03-14T15:03:33;12.70;99.90
33093;DHT22;19456;46.104;12.908;2023-03-14T15:05:59;12.60;99.90
33093;DHT22;19456;46.104;12.908;2023-03-14T15:08:26;12.60;99.90
33093;DHT22;19456;46.104;12.908;2023-03-14T15:10:53;12.50;99.90
33093;DHT22;19456;46.104;12.908;2023-03-14T15:13:19;12.60;99.90
33093;DHT22;19456;46.104;12.908;2023-03-14T15:15:44;12.40;99.90
33093;DHT22;19456;46.104;12.908;2023-03-14T15:18:12;12.50;99.90
33093;DHT22;19456;46.104;12.908;2023-03-14T15:20:39;12.50;99.90
33093;DHT22;19456;46.104;12.908;2023-03-14T15:23:09;12.40;99.90
33093;DHT22;19456;46.104;12.908;2023-03-14T15:25:35;12.40;99.90
33093;DHT22;19456;46.104;12.908;2023-03-14T15:28:01;12.30;99.90
33093;DHT22;19456;46.104;12.908;2023-03-14T15:30:27;12.20;99.90
33093;DHT22;19456;46.104;12.908;2023-03-14T15:32:52;12.10;99.90
33093;DHT22;19456;46.104;12.908;2023-03-14T15:35:18;12.10;99.90
33093;DHT22;19456;46.104;12.908;2023-03-14T15:37:43;12.10;99.90
33093;DHT22;19456;46.104;12.908;2023-03-14T15:40:10;12.10;99.90
33093;DHT22;19456;46.104;12.908;2023-03-14T15:42:39;12.20;99.90
33093;DHT22;19456;46.104;12.908;2023-03-14T15:45:05;12.20;99.90
33093;DHT22;19456;46.104;12.908;2023-03-14T15:47:31;12.10;99.90
33093;DHT22;19456;46.104;12.908;2023-03-14T15:49:57;12.20;99.90
33093;DHT22;19456;46.104;12.908;2023-03-14T15:52:23;12.30;99.90
33093;DHT22;19456;46.104;12.908;2023-03-14T15:54:48;12.20;99.90
33093;DHT22;19456;46.104;12.908;2023-03-14T15:57:14;12.20;99.90
33093;DHT22;19456;46.104;12.908;2023-03-14T15:59:39;12.10;99.90
33093;DHT22;19456;46.104;12.908;2023-03-14T16:02:05;12.10;99.90
33093;DHT22;19456;46.104;12.908;2023-03-14T16:04:30;12.10;99.90
33093;DHT22;19456;46.104;12.908;2023-03-14T16:06:56;12.10;99.90
33093;DHT22;19456;46.104;12.908;2023-03-14T16:09:21;12.00;99.90
33093;DHT22;19456;46.104;12.908;2023-03-14T16:11:48;12.00;99.90
33093;DHT22;19456;46.104;12.908;2023-03-14T16:14:17;12.00;99.90
33093;DHT22;19456;46.104;12.908;2023-03-14T16:16:43;12.10;99.90
33093;DHT22;19456;46.104;12.908;2023-03-14T16:19:08;12.10;99.90